Time;durP1;ratioP1;P1;durP2;ratioP2;P2;SDS_P1;SDS_P2;PMS_P1;PMS_P2;Temp;Humidity;BMP_temperature;BMP_pressure;BME280_temperature;BME280_humidity;BME280_pressure;Samples;Min_cycle;Max_cycle;Signal;HPM_P1;HPM_P2
2023/10/07 00:02:12;;;;;;;;;13.67;12.00;;;;;15.77;58.42;101859.41;5059608;28;45390;-84
2023/10/07 00:04:39;;;;;;;;;11.67;10.67;;;;;15.97;59.27;101913.72;5064049;28;45476;-85
2023/10/07 00:07:10;;;;;;;;;11.33;11.33;;;;;15.73;59.19;101881.09;5061923;28;45564;-87
2023/10/07 00:09:40;;;;;;;;;15.67;13.67;;;;;15.70;59.29;101868.75;5060005;28;46112;-85
2023/10/07 00:12:12;;;;;;;;;11.00;10.00;;;;;15.62;59.18;101862.94;5060053;28;45511;-85
2023/10/07 00:14:37;;;;;;;;;12.00;11.00;;;;;15.80;58.98;101893.22;5059522;28;45370;-84
2023/10/07 00:17:06;;;;;;;;;9.00;9.00;;;;;15.53;59.41;101842.00;5057733;28;45413;-85
2023/10/07 00:19:33;;;;;;;;;11.33;10.33;;;;;15.65;59.03;101872.66;5058045;28;45335;-85
2023/10/07 00:21:59;;;;;;;;;8.00;7.00;;;;;15.75;59.21;101895.28;5058480;28;45236;-85
2023/10/07 00:24:25;;;;;;;;;10.67;9.00;;;;;15.61;59.58;101878.16;5058914;28;45306;-85
2023/10/07 00:26:52;;;;;;;;;14.00;10.33;;;;;15.72;59.37;101893.66;5058679;28;45469;-86
2023/10/07 00:29:21;;;;;;;;;9.00;9.00;;;;;15.77;59.56;101896.97;5057816;28;46461;-85
2023/10/07 00:31:50;;;;;;;;;9.33;9.33;;;;;15.61;59.34;101877.28;5058135;28;45340;-85
2023/10/07 00:34:16;;;;;;;;;14.67;12.33;;;;;15.64;59.93;101877.16;5058720;28;45205;-87
2023/10/07 00:36:41;;;;;;;;;14.67;10.00;;;;;15.49;59.71;101875.28;5058912;28;45339;-84
2023/10/07 00:39:09;;;;;;;;;12.33;11.00;;;;;15.73;59.95;101891.84;5057765;28;45397;-84
2023/10/07 00:41:57;;;;;;;;;11.00;11.00;;;;;15.58;59.98;101877.44;5056418;28;45429;-85
2023/10/07 00:44:23;;;;;;;;;9.67;9.67;;;;;15.38;60.58;101864.31;5058772;28;45275;-84
2023/10/07 00:52:33;;;;;;;;;11.67;10.33;;;;;15.65;60.32;101903.00;5058179;28;45493;-84
2023/10/07 00:55:16;;;;;;;;;9.67;8.33;;;;;15.39;60.72;101855.31;5058251;28;45448;-85
2023/10/07 00:57:47;;;;;;;;;11.33;9.67;;;;;15.52;60.35;101872.44;5059004;28;45420;-85
2023/10/07 01:02:45;;;;;;;;;16.33;12.00;;;;;15.58;60.49;101872.94;5058638;28;45392;-86
2023/10/07 01:05:21;;;;;;;;;11.00;9.33;;;;;15.58;60.91;101877.44;5057750;28;45521;-86
2023/10/07 01:07:53;;;;;;;;;12.33;11.33;;;;;15.66;60.96;101877.91;5057303;28;45343;-86
2023/10/07 01:10:24;;;;;;;;;9.33;9.33;;;;;15.70;60.26;101879.47;5057859;28;45738;-86
2023/10/07 01:12:51;;;;;;;;;12.33;10.00;;;;;15.57;60.29;101848.91;5058188;28;45341;-85
2023/10/07 01:15:22;;;;;;;;;10.00;10.00;;;;;15.44;60.57;101818.38;5056731;28;45504;-86
2023/10/07 01:17:53;;;;;;;;;11.67;10.00;;;;;15.78;60.43;101868.31;5056864;28;45206;-85
2023/10/07 01:20:22;;;;;;;;;14.33;10.00;;;;;15.63;60.29;101837.88;5057812;28;45317;-85
2023/10/07 01:23:03;;;;;;;;;8.67;8.67;;;;;15.52;60.32;101819.69;5058505;28;45307;-86
2023/10/07 01:25:36;;;;;;;;;13.00;10.00;;;;;15.81;60.86;101857.41;5059289;28;45419;-85
2023/10/07 01:28:04;;;;;;;;;15.33;12.00;;;;;15.51;60.95;101801.00;5058866;28;45393;-85
2023/10/07 01:30:30;;;;;;;;;10.33;10.33;;;;;15.67;60.89;101812.59;5059454;28;45420;-86
2023/10/07 01:33:24;;;;;;;;;8.67;8.67;;;;;15.70;60.66;101833.88;5059417;28;45325;-86
2023/10/07 01:38:40;;;;;;;;;10.00;10.00;;;;;15.72;61.13;101829.28;5059907;28;45366;-86
2023/10/07 01:41:14;;;;;;;;;13.00;11.00;;;;;15.86;60.80;101839.22;5060189;28;45504;-85
2023/10/07 01:43:40;;;;;;;;;11.00;11.00;;;;;15.89;60.85;101829.19;5077273;28;45181;-85
2023/10/07 01:46:10;;;;;;;;;13.67;11.67;;;;;15.70;60.92;101801.69;5076275;28;44753;-85
2023/10/07 01:48:37;;;;;;;;;14.67;11.67;;;;;15.71;60.88;101814.16;5072652;28;45621;-85
2023/10/07 01:51:05;;;;;;;;;14.67;11.33;;;;;15.66;60.57;101805.50;5071278;28;45386;-85
2023/10/07 01:53:31;;;;;;;;;10.33;10.33;;;;;15.60;61.19;101795.13;5068563;28;45296;-84
2023/10/07 01:56:04;;;;;;;;;12.33;11.00;;;;;15.73;60.58;101814.06;5066072;28;45464;-86
2023/10/07 01:58:30;;;;;;;;;9.00;9.00;;;;;15.67;60.88;101807.25;5060267;28;45323;-86
2023/10/07 02:00:57;;;;;;;;;12.00;10.33;;;;;15.74;60.81;101822.00;5056825;28;45582;-86
2023/10/07 02:03:24;;;;;;;;;12.00;12.00;;;;;15.76;60.67;101821.94;5056828;28;45467;-86
2023/10/07 02:05:50;;;;;;;;;11.33;10.67;;;;;15.68;61.08;101832.25;5057654;28;45382;-85
2023/10/07 02:08:23;;;;;;;;;14.00;11.33;;;;;15.65;60.89;101830.59;5057834;28;45240;-85
2023/10/07 02:10:50;;;;;;;;;12.00;11.67;;;;;15.55;61.58;101818.63;5057218;28;46325;-86
2023/10/07 02:13:20;;;;;;;;;11.00;11.00;;;;;15.69;61.59;101855.41;5057995;28;45401;-85
2023/10/07 02:15:47;;;;;;;;;14.33;12.33;;;;;15.76;61.27;101862.19;5057343;28;45452;-85
2023/10/07 02:18:15;;;;;;;;;13.33;12.33;;;;;15.74;61.39;101870.28;5057256;28;45342;-86
2023/10/07 02:20:49;;;;;;;;;14.67;12.67;;;;;15.46;61.42;101835.25;5057131;28;46025;-85
2023/10/07 02:23:21;;;;;;;;;10.33;10.33;;;;;15.50;61.45;101842.19;5057514;28;45350;-85
2023/10/07 02:25:49;;;;;;;;;16.67;12.00;;;;;15.55;62.01;101851.69;5056915;28;45935;-84
2023/10/07 02:28:16;;;;;;;;;19.67;16.67;;;;;15.62;62.70;101879.03;5057170;28;45337;-85
2023/10/07 02:31:00;;;;;;;;;16.33;15.33;;;;;15.50;62.90;101867.19;5056448;28;45315;-86
2023/10/07 02:33:27;;;;;;;;;16.33;14.00;;;;;15.50;63.14;101875.22;5072544;28;45437;-85
2023/10/07 02:35:56;;;;;;;;;16.33;15.00;;;;;15.45;63.12;101877.28;5059345;28;45383;-84
2023/10/07 02:38:35;;;;;;;;;17.00;13.67;;;;;15.40;63.42;101878.50;5058822;28;45362;-86
2023/10/07 02:41:07;;;;;;;;;10.33;8.67;;;;;15.39;63.54;101882.13;5059196;28;46386;-86
2023/10/07 02:43:34;;;;;;;;;13.67;13.67;;;;;15.33;63.57;101865.41;5058314;28;45382;-85
2023/10/07 02:46:01;;;;;;;;;13.33;11.33;;;;;15.30;64.00;101879.00;5057895;28;45397;-87
2023/10/07 02:48:28;;;;;;;;;14.00;13.00;;;;;14.97;64.17;101821.88;5057808;28;45216;-85
2023/10/07 02:50:54;;;;;;;;;16.00;12.67;;;;;14.98;64.28;101826.31;5056432;28;46171;-84
2023/10/07 02:53:19;;;;;;;;;15.33;15.00;;;;;15.20;64.47;101869.72;5057549;28;45314;-85
2023/10/07 02:55:54;;;;;;;;;22.33;14.33;;;;;15.12;64.91;101849.69;5055546;28;45362;-85
2023/10/07 02:58:41;;;;;;;;;12.33;11.00;;;;;15.02;64.67;101830.56;5057887;28;45307;-87
2023/10/07 03:01:16;;;;;;;;;13.67;13.67;;;;;15.24;64.24;101857.03;5056031;28;47234;-85
2023/10/07 03:03:48;;;;;;;;;14.67;13.33;;;;;15.00;63.84;101801.19;5057941;28;45792;-86
2023/10/07 03:06:17;;;;;;;;;14.33;13.00;;;;;15.29;64.09;101858.50;5059642;28;45286;-84
2023/10/07 03:11:20;;;;;;;;;13.00;13.00;;;;;15.29;64.35;101866.53;5061871;28;45339;-86
2023/10/07 03:13:46;;;;;;;;;17.67;16.00;;;;;14.94;64.40;101812.22;5062024;28;45501;-85
2023/10/07 03:19:06;;;;;;;;;14.00;11.67;;;;;15.29;64.43;101873.72;5065668;28;45303;-86
2023/10/07 03:24:11;;;;;;;;;13.67;13.67;;;;;15.20;65.18;101866.19;5059828;28;45481;-86
2023/10/07 03:26:43;;;;;;;;;10.33;10.33;;;;;15.12;64.93;101861.25;5060245;28;45451;-86
2023/10/07 03:29:14;;;;;;;;;13.67;13.67;;;;;14.88;65.36;101825.09;5060137;28;45236;-86
2023/10/07 03:34:09;;;;;;;;;17.00;13.00;;;;;15.14;65.94;101878.13;5059601;28;45318;-85
2023/10/07 03:36:41;;;;;;;;;16.00;15.00;;;;;15.13;65.88;101879.06;5059565;28;45311;-87
2023/10/07 03:39:23;;;;;;;;;12.33;12.33;;;;;15.07;65.63;101873.16;5059982;28;45300;-85
2023/10/07 03:41:55;;;;;;;;;14.67;14.67;;;;;15.13;65.92;101883.56;5067654;28;45346;-86
2023/10/07 03:44:25;;;;;;;;;17.00;12.33;;;;;15.02;66.17;101868.06;5060467;28;45331;-86
2023/10/07 03:46:54;;;;;;;;;13.00;13.00;;;;;15.10;66.37;101881.03;5059689;28;45350;-86
2023/10/07 03:49:30;;;;;;;;;8.00;8.00;;;;;14.84;65.71;101823.50;5058810;28;45260;-84
2023/10/07 03:52:06;;;;;;;;;13.67;12.00;;;;;14.96;65.82;101855.84;5059121;28;45943;-86
2023/10/07 03:54:33;;;;;;;;;15.33;11.00;;;;;14.91;66.25;101841.84;5059870;28;45350;-86
2023/10/07 03:57:01;;;;;;;;;15.67;15.00;;;;;15.12;65.65;101873.78;5059276;28;45453;-86
2023/10/07 03:59:31;;;;;;;;;15.67;13.00;;;;;14.90;65.69;101841.94;5060096;28;45518;-86
2023/10/07 04:01:57;;;;;;;;;20.33;16.00;;;;;15.03;65.71;101859.06;5058266;28;47532;-86
2023/10/07 04:04:23;;;;;;;;;16.33;15.33;;;;;14.80;65.90;101825.50;5057189;28;45502;-87
2023/10/07 04:06:49;;;;;;;;;17.33;12.00;;;;;15.11;66.01;101875.63;5059668;28;45416;-86
2023/10/07 04:09:15;;;;;;;;;19.67;16.33;;;;;15.05;65.91;101857.16;5059438;28;45584;-86
2023/10/07 04:11:50;;;;;;;;;14.00;10.33;;;;;15.03;65.97;101869.78;5057901;28;45989;-86
2023/10/07 04:14:27;;;;;;;;;14.00;12.67;;;;;15.10;66.07;101876.53;5059262;28;45326;-86
2023/10/07 04:16:54;;;;;;;;;15.00;13.33;;;;;15.11;66.52;101877.44;5053649;28;45518;-85
2023/10/07 04:21:45;;;;;;;;;14.67;13.67;;;;;15.20;65.59;101876.91;5049887;28;45340;-86
2023/10/07 04:24:12;;;;;;;;;17.00;14.33;;;;;15.14;64.92;101867.41;5057454;28;45462;-85
2023/10/07 04:26:54;;;;;;;;;13.33;12.00;;;;;14.93;65.13;101825.69;5058692;28;45426;-85
2023/10/07 04:29:21;;;;;;;;;14.00;13.67;;;;;15.08;65.53;101846.28;5059271;28;45230;-86
2023/10/07 04:31:51;;;;;;;;;15.00;15.00;;;;;15.25;65.55;101865.00;5059064;28;45463;-86
2023/10/07 04:34:26;;;;;;;;;14.67;13.67;;;;;15.08;65.58;101846.28;5058615;28;45337;-86
2023/10/07 04:42:21;;;;;;;;;13.67;10.67;;;;;15.30;65.20;101856.69;5062729;28;45341;-86
2023/10/07 04:52:40;;;;;;;;;12.67;8.33;;;;;15.16;66.62;101854.78;5062482;28;45893;-85
2023/10/07 04:55:18;;;;;;;;;16.67;13.00;;;;;15.03;66.57;101843.00;5079064;28;44729;-85
2023/10/07 04:57:45;;;;;;;;;10.67;10.67;;;;;15.04;66.21;101850.94;5082828;28;44811;-86
2023/10/07 05:03:15;;;;;;;;;15.33;13.00;;;;;15.20;66.68;101871.53;5061206;28;45486;-85
2023/10/07 05:05:44;;;;;;;;;15.33;13.67;;;;;15.06;66.46;101848.19;5060752;27;45185;-85
2023/10/07 05:08:10;;;;;;;;;13.67;13.67;;;;;14.83;66.41;101797.69;5058298;28;45628;-85
2023/10/07 05:10:41;;;;;;;;;13.33;12.33;;;;;15.18;66.25;101857.38;5058481;28;45259;-86
2023/10/07 05:13:07;;;;;;;;;12.33;12.33;;;;;14.92;66.15;101832.00;5055648;28;48225;-85
2023/10/07 05:15:38;;;;;;;;;11.67;11.67;;;;;15.21;66.80;101873.28;5057828;28;45404;-85
2023/10/07 05:18:04;;;;;;;;;19.00;15.33;;;;;15.02;67.23;101841.28;5052914;28;45330;-85
2023/10/07 05:20:33;;;;;;;;;15.33;15.33;;;;;15.18;67.61;101873.44;5056596;28;45602;-86
2023/10/07 05:23:02;;;;;;;;;18.33;15.00;;;;;15.16;67.39;101884.25;5057977;28;46056;-86
2023/10/07 05:25:30;;;;;;;;;17.33;14.67;;;;;15.05;67.22;101878.59;5057128;28;46343;-87
2023/10/07 05:27:56;;;;;;;;;18.33;12.67;;;;;14.67;66.94;101809.22;5058601;28;45288;-86
2023/10/07 05:30:21;;;;;;;;;18.33;15.00;;;;;14.65;67.05;101811.13;5059611;28;45664;-86
2023/10/07 05:32:47;;;;;;;;;27.75;25.00;;;;;15.09;67.02;101864.09;5061497;28;45424;-82
2023/10/07 05:35:14;;;;;;;;;20.00;16.00;;;;;14.95;66.93;101834.50;5059028;28;45433;-86
2023/10/07 05:37:42;;;;;;;;;20.00;18.00;;;;;15.19;66.78;101870.69;5057605;28;45456;-84
2023/10/07 05:40:08;;;;;;;;;16.00;16.00;;;;;15.02;66.66;101843.94;5059797;28;45494;-86
2023/10/07 05:42:33;;;;;;;;;20.33;16.33;;;;;15.23;66.36;101880.28;5078567;28;47122;-87
2023/10/07 05:44:59;;;;;;;;;15.75;15.75;;;;;14.70;66.12;101798.34;5080004;28;55746;-89
2023/10/07 05:47:25;;;;;;;;;18.33;15.33;;;;;14.78;66.49;101800.63;5065675;28;45263;-89
2023/10/07 05:49:55;;;;;;;;;20.00;17.50;;;;;14.89;66.49;101816.09;5065744;28;45505;-89
2023/10/07 05:52:24;;;;;;;;;18.00;17.33;;;;;14.84;66.57;101810.13;5067272;28;45507;-89
2023/10/07 05:55:09;;;;;;;;;22.50;19.00;;;;;14.61;66.58;101771.22;5073270;28;45234;-93
2023/10/07 05:57:34;;;;;;;;;19.00;16.33;;;;;14.71;66.85;101784.03;5069404;28;44801;-84
2023/10/07 06:00:01;;;;;;;;;17.00;14.33;;;;;15.23;66.63;101866.00;5043215;28;45203;-88
2023/10/07 06:02:33;;;;;;;;;17.67;17.67;;;;;15.24;66.28;101868.63;5064406;28;45323;-93
2023/10/07 06:05:05;;;;;;;;;14.00;10.00;;;;;14.62;66.63;101763.09;5059755;28;44697;-91
2023/10/07 06:07:34;;;;;;;;;15.75;15.75;;;;;15.27;66.54;101867.59;5064425;28;45381;-90
2023/10/07 06:10:02;;;;;;;;;19.67;16.00;;;;;15.27;66.44;101870.25;5057776;28;45313;-87
2023/10/07 06:12:28;;;;;;;;;15.25;15.00;;;;;14.81;66.22;101789.72;5041720;28;48027;-89
2023/10/07 06:14:54;;;;;;;;;19.33;18.67;;;;;14.80;66.36;101789.81;5062479;28;45365;-87
2023/10/07 06:17:20;;;;;;;;;22.00;18.67;;;;;14.82;66.69;101778.06;5062412;28;45389;-87
2023/10/07 06:19:45;;;;;;;;;20.00;17.00;;;;;15.14;66.47;101839.75;5062081;28;45489;-87
2023/10/07 06:22:11;;;;;;;;;15.00;13.67;;;;;15.23;66.43;101858.81;5061341;28;48229;-88
2023/10/07 06:24:39;;;;;;;;;21.00;17.67;;;;;15.36;65.81;101880.44;5062615;28;45299;-87
2023/10/07 06:27:11;;;;;;;;;14.33;12.00;;;;;15.03;66.29;101833.16;5062078;28;45259;-88
2023/10/07 06:29:41;;;;;;;;;18.00;16.00;;;;;15.42;65.82;101890.84;5061198;28;45561;-87
2023/10/07 06:32:25;;;;;;;;;20.00;15.33;;;;;15.08;66.20;101819.50;5061321;28;46516;-86
2023/10/07 06:34:59;;;;;;;;;18.00;16.67;;;;;15.30;65.76;101852.19;5060977;28;45228;-87
2023/10/07 06:37:31;;;;;;;;;17.67;15.00;;;;;15.45;65.71;101863.00;5061123;28;45257;-87
2023/10/07 06:40:01;;;;;;;;;18.33;15.67;;;;;15.55;65.74;101872.25;5059813;28;45439;-88
2023/10/07 06:42:26;;;;;;;;;20.67;17.33;;;;;15.26;64.92;101829.19;5060405;28;46970;-86
2023/10/07 06:44:56;;;;;;;;;15.67;14.67;;;;;15.56;64.80;101871.31;5061188;28;45423;-87
2023/10/07 06:47:29;;;;;;;;;18.00;18.00;;;;;15.74;64.66;101891.75;5059203;28;45347;-88
2023/10/07 06:49:56;;;;;;;;;15.33;14.00;;;;;15.51;64.84;101838.53;5059112;28;45271;-88
2023/10/07 06:52:22;;;;;;;;;15.00;15.00;;;;;15.58;64.36;101845.28;5056808;28;47299;-87
2023/10/07 06:54:48;;;;;;;;;17.33;15.33;;;;;15.80;63.78;101875.31;5057436;28;45705;-87
2023/10/07 06:57:14;;;;;;;;;18.00;17.33;;;;;15.96;64.02;101894.06;5058297;28;45423;-88
2023/10/07 06:59:45;;;;;;;;;18.00;14.33;;;;;15.70;63.67;101839.25;5061022;28;45465;-87
2023/10/07 07:02:17;;;;;;;;;14.33;14.00;;;;;16.06;63.60;101872.94;5061633;28;47304;-89
2023/10/07 07:04:43;;;;;;;;;17.33;12.67;;;;;16.05;63.59;101860.47;5059119;28;45410;-88
2023/10/07 07:07:10;;;;;;;;;11.67;9.67;;;;;16.18;62.94;101866.84;5057505;28;45397;-87
2023/10/07 07:12:16;;;;;;;;;16.67;14.67;;;;;15.67;62.47;101775.06;5057986;28;45405;-86
2023/10/07 07:14:50;;;;;;;;;13.00;12.33;;;;;16.13;62.60;101853.69;5059972;28;45367;-88
2023/10/07 07:17:30;;;;;;;;;16.67;16.67;;;;;16.23;62.41;101870.97;5064558;28;45314;-85
2023/10/07 07:22:38;;;;;;;;;18.33;16.67;;;;;16.28;61.82;101856.44;5062330;28;45970;-89
2023/10/07 07:25:10;;;;;;;;;17.67;16.00;;;;;16.45;62.05;101881.31;5060311;28;45291;-87
2023/10/07 07:27:36;;;;;;;;;23.67;18.00;;;;;16.43;61.61;101872.47;5045474;28;45268;-87
2023/10/07 07:30:07;;;;;;;;;21.00;19.67;;;;;16.62;61.74;101887.47;5042802;28;45559;-87
2023/10/07 07:32:33;;;;;;;;;15.00;14.67;;;;;16.51;61.26;101869.31;5041806;28;47315;-85
2023/10/07 07:35:02;;;;;;;;;20.00;16.33;;;;;16.88;60.83;101897.50;5039930;28;45401;-87
2023/10/07 07:37:31;;;;;;;;;17.67;17.33;;;;;17.04;60.51;101911.72;5039069;28;45295;-87
2023/10/07 07:39:59;;;;;;;;;21.67;14.33;;;;;17.02;60.38;101899.34;5048980;28;45548;-88
2023/10/07 07:42:27;;;;;;;;;19.67;17.67;;;;;17.03;60.15;101893.00;5057569;28;46013;-86
2023/10/07 07:44:56;;;;;;;;;22.33;20.67;;;;;16.93;59.89;101882.00;5058064;28;45471;-86
2023/10/07 07:47:22;;;;;;;;;15.00;15.00;;;;;16.87;59.79;101874.28;5058456;28;45299;-86
2023/10/07 07:49:48;;;;;;;;;22.33;21.00;;;;;16.74;60.05;101859.88;5059755;28;45292;-86
2023/10/07 07:52:15;;;;;;;;;26.67;23.00;;;;;17.06;59.77;101903.59;5063462;28;45481;-85
2023/10/07 07:54:44;;;;;;;;;21.00;19.33;;;;;17.12;59.73;101913.94;5079662;28;45290;-85
2023/10/07 07:57:12;;;;;;;;;24.33;22.67;;;;;17.26;59.16;101943.50;5059573;28;51592;-84
2023/10/07 07:59:38;;;;;;;;;21.67;19.67;;;;;16.94;59.45;101881.03;5060802;28;45213;-86
2023/10/07 08:02:12;;;;;;;;;27.33;21.00;;;;;17.38;59.18;101947.25;5061543;28;47264;-84
2023/10/07 08:04:48;;;;;;;;;19.00;18.00;;;;;17.47;58.85;101952.06;5042951;28;45218;-86
2023/10/07 08:09:51;;;;;;;;;23.00;21.00;;;;;17.54;58.63;101952.53;5046554;28;45438;-90
2023/10/07 08:12:28;;;;;;;;;21.00;18.67;;;;;17.67;58.57;101958.84;5044594;28;47824;-87
2023/10/07 08:14:58;;;;;;;;;21.67;21.33;;;;;17.74;58.67;101962.06;5044219;28;45330;-87
2023/10/07 08:17:27;;;;;;;;;22.67;18.33;;;;;17.73;58.50;101946.88;5050404;28;45217;-88
2023/10/07 08:19:54;;;;;;;;;20.00;19.67;;;;;17.48;58.13;101902.69;5058890;28;45416;-87
2023/10/07 08:22:20;;;;;;;;;19.67;19.00;;;;;17.37;57.89;101876.47;5054923;28;45404;-85
2023/10/07 08:24:46;;;;;;;;;20.33;17.67;;;;;17.86;58.02;101977.41;5066043;28;45109;-85
2023/10/07 08:27:43;;;;;;;;;17.67;16.67;;;;;17.75;58.07;101945.81;5074683;28;45425;-85
2023/10/07 08:30:06;;;;;;;;;22.00;15.67;;;;;17.81;57.83;101931.94;5071065;28;45532;-84
2023/10/07 08:32:35;;;;;;;;;14.00;14.00;;;;;17.85;57.58;101932.63;5071710;28;47359;-85
2023/10/07 08:35:18;;;;;;;;;20.00;18.00;;;;;18.17;57.35;101979.81;5089450;28;45216;-84
2023/10/07 08:37:47;;;;;;;;;21.00;17.00;;;;;18.24;57.33;101981.16;5095218;28;45263;-82
2023/10/07 08:40:26;;;;;;;;;20.67;20.33;;;;;18.30;57.28;101965.53;5076211;28;45381;-85
2023/10/07 08:42:56;;;;;;;;;19.67;18.00;;;;;18.39;57.26;101967.63;5074350;28;47503;-84
2023/10/07 08:45:24;;;;;;;;;16.33;16.33;;;;;18.36;57.13;101959.72;5068282;28;45374;-85
2023/10/07 08:48:08;;;;;;;;;22.33;18.33;;;;;18.48;57.18;101975.94;5048598;28;45461;-86
2023/10/07 08:50:42;;;;;;;;;21.33;21.33;;;;;18.56;56.75;101978.13;5064932;28;45445;-85
2023/10/07 08:53:07;;;;;;;;;23.67;22.33;;;;;18.45;56.56;101946.53;5064709;28;46206;-86
2023/10/07 08:55:33;;;;;;;;;16.67;16.33;;;;;18.75;56.87;101983.16;5065826;28;44866;-88
2023/10/07 08:58:02;;;;;;;;;25.00;21.33;;;;;18.72;56.67;101965.38;5051616;28;45414;-87
2023/10/07 09:00:32;;;;;;;;;20.33;19.00;;;;;18.79;56.28;101964.00;5065383;28;44756;-89
2023/10/07 09:02:59;;;;;;;;;17.67;17.67;;;;;19.01;56.09;101981.34;5071659;28;46240;-88
2023/10/07 09:05:29;;;;;;;;;19.00;17.67;;;;;18.94;55.60;101966.59;5072933;28;45357;-93
2023/10/07 09:08:11;;;;;;;;;19.67;17.33;;;;;18.96;55.69;101968.19;5079030;28;44767;-86
2023/10/07 09:10:40;;;;;;;;;20.00;18.00;;;;;19.07;55.66;101986.34;5062082;28;45303;-85
2023/10/07 09:13:12;;;;;;;;;16.67;16.67;;;;;19.05;55.72;101989.13;5064227;28;45508;-87
2023/10/07 09:15:42;;;;;;;;;15.67;15.33;;;;;18.90;55.40;101954.31;5044626;28;45408;-88
2023/10/07 09:18:10;;;;;;;;;20.33;16.67;;;;;19.14;55.17;101987.63;5043640;28;45692;-88
2023/10/07 09:20:45;;;;;;;;;16.33;16.33;;;;;18.92;55.33;101928.09;5048482;28;45402;-88
2023/10/07 09:23:19;;;;;;;;;16.00;15.67;;;;;19.24;55.09;101961.72;5049154;28;45394;-86
2023/10/07 09:25:52;;;;;;;;;16.00;16.00;;;;;19.23;55.21;101951.06;5047160;28;45301;-87
2023/10/07 09:28:19;;;;;;;;;23.00;19.67;;;;;19.26;55.14;101954.38;5045860;28;45289;-87
2023/10/07 09:30:50;;;;;;;;;18.33;16.67;;;;;18.98;54.59;101879.97;5069695;28;45556;-89
2023/10/07 09:33:17;;;;;;;;;19.00;18.00;;;;;19.32;54.36;101927.00;5062452;28;47309;-87
2023/10/07 09:35:47;;;;;;;;;15.33;14.33;;;;;19.77;54.49;101992.13;5063776;28;45362;-87
2023/10/07 09:41:11;;;;;;;;;13.00;13.00;;;;;19.84;53.62;101971.81;5068840;28;44725;-89
2023/10/07 09:43:42;;;;;;;;;16.33;13.00;;;;;19.78;53.36;101955.19;5060060;28;45953;-88
2023/10/07 09:46:07;;;;;;;;;17.33;14.33;;;;;20.00;53.37;101982.34;5045068;28;45256;-87
2023/10/07 09:48:41;;;;;;;;;15.00;15.00;;;;;20.04;53.38;101989.25;5042741;28;45420;-87
2023/10/07 09:51:50;;;;;;;;;18.00;15.00;;;;;19.88;53.38;101959.81;5047930;28;45583;-88
2023/10/07 09:54:22;;;;;;;;;13.33;13.00;;;;;20.07;53.66;101990.88;5050586;28;45589;-89
2023/10/07 09:57:19;;;;;;;;;17.67;14.33;;;;;20.16;53.17;101988.34;5048229;28;44759;-87
2023/10/07 10:00:38;;;;;;;;;13.33;13.33;;;;;20.36;52.86;101989.56;5045305;28;45363;-87
2023/10/07 10:03:30;;;;;;;;;16.67;12.00;;;;;20.33;52.50;101944.72;5044501;28;44827;-87
2023/10/07 10:06:25;;;;;;;;;17.67;12.33;;;;;20.68;51.81;101972.75;5061778;28;48816;-84
2023/10/07 10:09:08;;;;;;;;;13.00;12.33;;;;;20.88;51.33;101996.44;5025633;28;45775;-84
2023/10/07 10:17:00;;;;;;;;;13.00;11.67;;;;;21.61;51.02;101990.66;5048215;28;45461;-88
2023/10/07 10:19:44;;;;;;;;;13.00;13.00;;;;;21.54;50.00;101962.38;5063074;28;44856;-86
2023/10/07 10:22:11;;;;;;;;;13.00;10.00;;;;;21.85;50.17;101981.53;5078359;28;45418;-85
2023/10/07 10:24:43;;;;;;;;;8.33;8.00;;;;;21.74;49.71;101904.72;5060301;28;45530;-88
2023/10/07 10:27:13;;;;;;;;;8.67;8.00;;;;;22.43;48.35;101977.59;5061056;28;45545;-85
2023/10/07 10:29:52;;;;;;;;;12.00;9.00;;;;;22.47;48.35;101929.41;5071084;28;45346;-85
2023/10/07 10:32:27;;;;;;;;;8.00;7.00;;;;;22.52;46.88;101905.44;5049228;28;45374;-85
2023/10/07 10:35:03;;;;;;;;;13.67;9.33;;;;;23.09;47.07;101953.00;5057689;28;45465;-82
2023/10/07 10:37:32;;;;;;;;;8.00;8.00;;;;;23.49;46.51;101963.91;5063207;28;47259;-84
2023/10/07 10:40:19;;;;;;;;;12.33;9.33;;;;;23.72;44.84;101964.59;5058736;28;45377;-83
2023/10/07 10:42:47;;;;;;;;;11.00;9.00;;;;;23.84;44.79;101933.59;5061890;28;45193;-84
2023/10/07 10:45:20;;;;;;;;;10.00;8.67;;;;;24.30;45.04;101962.88;5068203;28;45509;-85
2023/10/07 10:47:50;;;;;;;;;9.75;7.50;;;;;24.30;44.27;101919.38;5063690;28;46113;-83
2023/10/07 10:50:17;;;;;;;;;11.00;11.00;;;;;24.76;43.37;101957.72;5062646;28;45885;-84
2023/10/07 10:52:48;;;;;;;;;10.00;8.75;;;;;24.89;43.63;101931.06;5054104;28;44936;-82
2023/10/07 10:55:17;;;;;;;;;8.50;7.75;;;;;25.35;42.53;101968.34;5066246;28;45476;-84
2023/10/07 10:57:44;;;;;;;;;6.00;6.00;;;;;25.51;42.62;101959.53;5061041;28;47002;-85
2023/10/07 11:00:24;;;;;;;;;6.50;5.50;;;;;25.72;42.01;101952.00;5058338;28;45557;-86
2023/10/07 11:02:50;;;;;;;;;19.50;15.25;;;;;26.03;41.53;101948.94;5057342;28;45461;-86
2023/10/07 11:05:16;;;;;;;;;6.75;6.75;;;;;26.38;41.00;101959.91;5054526;28;45496;-85
2023/10/07 11:07:43;;;;;;;;;5.00;5.00;;;;;26.52;39.36;101952.19;5054578;28;47098;-84
2023/10/07 11:10:17;;;;;;;;;6.50;5.50;;;;;26.37;39.63;101883.69;5060344;28;45461;-84
2023/10/07 11:12:45;;;;;;;;;6.40;5.60;;;;;26.62;38.73;101914.75;5053603;28;45547;-84
2023/10/07 11:15:15;;;;;;;;;8.00;8.00;;;;;27.01;38.94;101946.13;5059666;28;45620;-84
2023/10/07 11:17:41;;;;;;;;;3.00;3.00;;;;;27.28;37.73;101936.03;5054271;28;47119;-84
2023/10/07 11:20:09;;;;;;;;;8.00;8.00;;;;;27.48;37.79;101932.06;5057235;28;45461;-84
2023/10/07 11:22:42;;;;;;;;;6.20;5.00;;;;;27.84;37.04;101932.72;5055060;28;46694;-84
2023/10/07 11:25:14;;;;;;;;;6.00;4.20;;;;;28.06;36.20;101947.66;5054112;28;45398;-83
2023/10/07 11:27:42;;;;;;;;;5.75;5.00;;;;;28.03;36.10;101914.31;5041882;28;45447;-82
2023/10/07 11:30:11;;;;;;;;;3.40;3.40;;;;;28.40;37.32;101938.50;5050604;28;45429;-84
2023/10/07 11:32:40;;;;;;;;;4.00;3.40;;;;;28.57;35.96;101939.38;5057227;28;45308;-83
2023/10/07 11:35:19;;;;;;;;;5.75;4.00;;;;;28.46;34.82;101927.72;5059549;28;44902;-85
2023/10/07 11:37:58;;;;;;;;;2.60;2.60;;;;;28.26;35.26;101930.91;5059616;28;48723;-86
2023/10/07 11:40:30;;;;;;;;;9.60;6.80;;;;;28.41;35.87;101929.28;5050333;28;45533;-83
2023/10/07 11:42:58;;;;;;;;;3.80;3.80;;;;;28.80;34.99;101926.69;5057653;28;45468;-82
2023/10/07 11:45:26;;;;;;;;;6.25;5.00;;;;;28.99;33.93;101922.75;5059541;28;45477;-83
2023/10/07 11:47:56;;;;;;;;;4.60;4.60;;;;;29.10;35.07;101916.06;5053730;28;45421;-82
2023/10/07 11:50:22;;;;;;;;;5.20;5.20;;;;;29.46;33.91;101913.72;5051238;28;45240;-82
2023/10/07 11:52:48;;;;;;;;;5.40;5.40;;;;;29.98;33.46;101926.84;5063868;28;45334;-83
2023/10/07 11:55:17;;;;;;;;;4.50;3.50;;;;;30.27;32.49;101899.56;5063537;28;45333;-83
2023/10/07 11:57:42;;;;;;;;;3.60;3.60;;;;;31.11;32.14;101933.28;5064122;28;45471;-82
2023/10/07 12:00:13;;;;;;;;;4.50;4.50;;;;;31.80;29.87;101927.53;5063183;28;45443;-84
2023/10/07 12:02:39;;;;;;;;;5.20;5.00;;;;;32.26;29.87;101895.84;5059541;28;45389;-82
2023/10/07 12:05:06;;;;;;;;;5.50;4.00;;;;;32.96;28.67;101912.59;5064656;28;45874;-84
2023/10/07 12:07:35;;;;;;;;;6.00;5.00;;;;;33.57;27.85;101921.00;5061746;28;45354;-81
2023/10/07 12:10:01;;;;;;;;;4.00;4.00;;;;;34.18;27.59;101929.28;5059706;28;45543;-82
2023/10/07 12:12:27;;;;;;;;;4.25;4.00;;;;;34.60;26.69;101923.41;5062696;28;45385;-82
2023/10/07 12:14:53;;;;;;;;;5.50;5.50;;;;;35.06;26.32;101911.50;5051124;28;45600;-83
2023/10/07 12:17:18;;;;;;;;;5.60;4.00;;;;;35.71;25.71;101920.66;5053933;28;46586;-80
2023/10/07 12:19:43;;;;;;;;;4.00;2.75;;;;;35.96;25.33;101903.31;5074242;28;44763;-83
2023/10/07 12:22:09;;;;;;;;;4.50;4.50;;;;;36.51;23.92;101937.69;5067316;28;44982;-83
2023/10/07 12:24:34;;;;;;;;;4.75;3.50;;;;;36.85;23.49;101921.59;5050656;28;45513;-85